Time;durP1;ratioP1;P1;durP2;ratioP2;P2;SDS_P1;SDS_P2;PMS_P1;PMS_P2;Temp;Humidity;BMP_temperature;BMP_pressure;BME280_temperature;BME280_humidity;BME280_pressure;Samples;Min_cycle;Max_cycle;Signal;HPM_P1;HPM_P2
2024/03/30 06:45:55;;;;;;;4.73;3.97;;;;;;;7.99;100.00;97164.81;5108575;28;20575;-76
2024/03/30 06:48:23;;;;;;;6.20;3.53;;;;;;;8.56;100.00;97148.75;5108674;28;39938;-76
2024/03/30 06:50:51;;;;;;;4.17;3.20;;;;;;;8.94;100.00;97118.38;5107478;28;42027;-76
2024/03/30 06:53:18;;;;;;;6.83;4.53;;;;;;;9.55;100.00;97153.63;5109038;28;43573;-76
2024/03/30 06:55:44;;;;;;;4.93;4.00;;;;;;;9.94;100.00;97149.38;5090252;28;42698;-76
2024/03/30 06:58:12;;;;;;;3.90;3.53;;;;;;;10.33;100.00;97153.00;5107423;28;38874;-76
2024/03/30 07:00:38;;;;;;;4.33;3.90;;;;;;;10.69;100.00;97145.38;5107013;28;41741;-76
2024/03/30 07:03:07;;;;;;;5.53;4.73;;;;;;;11.03;100.00;97148.44;5124620;27;42012;-76
2024/03/30 07:05:33;;;;;;;4.00;3.60;;;;;;;11.38;100.00;97155.78;5106768;28;41022;-77
2024/03/30 07:08:01;;;;;;;4.97;3.70;;;;;;;11.65;100.00;97147.91;5090323;28;39848;-76
2024/03/30 07:10:27;;;;;;;4.43;4.00;;;;;;;11.84;100.00;97129.34;5108339;28;42098;-77
2024/03/30 07:12:55;;;;;;;5.30;3.80;;;;;;;12.21;100.00;97142.56;5108728;28;42691;-77
2024/03/30 07:15:22;;;;;;;6.20;4.20;;;;;;;12.58;100.00;97145.13;5107134;28;42490;-76
2024/03/30 07:17:50;;;;;;;5.07;4.40;;;;;;;12.92;100.00;97141.81;5106956;28;40220;-76
2024/03/30 07:20:18;;;;;;;5.40;4.60;;;;;;;13.38;100.00;97154.00;5108191;28;42822;-77
2024/03/30 07:22:45;;;;;;;5.13;4.47;;;;;;;13.77;100.00;97154.44;5124345;27;43002;-77
2024/03/30 07:25:12;;;;;;;6.13;4.57;;;;;;;14.17;98.56;97156.50;5108062;28;42940;-77
2024/03/30 07:27:39;;;;;;;5.80;3.87;;;;;;;14.65;96.91;97158.50;5107173;28;39093;-76
2024/03/30 07:30:07;;;;;;;6.87;4.10;;;;;;;15.07;94.06;97154.94;5106850;28;41750;-77
2024/03/30 07:32:36;;;;;;;7.47;4.40;;;;;;;15.56;92.79;97161.13;5106943;28;42705;-77
2024/03/30 07:35:03;;;;;;;5.13;3.93;;;;;;;16.03;91.16;97153.19;5106635;28;42386;-77
2024/03/30 07:37:32;;;;;;;4.80;4.23;;;;;;;16.46;88.75;97159.03;5108340;28;39968;-77
2024/03/30 07:39:59;;;;;;;4.83;3.80;;;;;;;16.86;84.64;97145.47;5106773;28;41627;-77
2024/03/30 07:42:26;;;;;;;4.50;3.90;;;;;;;17.48;81.42;97180.13;5106892;28;41900;-77
2024/03/30 07:44:52;;;;;;;3.77;3.40;;;;;;;17.97;79.17;97182.38;5089191;28;44186;-77
2024/03/30 07:47:20;;;;;;;4.63;3.50;;;;;;;18.40;75.99;97188.78;5089730;28;38921;-77
2024/03/30 07:49:47;;;;;;;7.00;3.60;;;;;;;18.62;72.32;97203.13;5108267;28;41624;-77
2024/03/30 07:52:15;;;;;;;5.73;3.30;;;;;;;18.73;71.99;97193.78;5106654;28;42037;-76
2024/03/30 07:54:43;;;;;;;7.70;3.37;;;;;;;18.92;70.81;97195.84;5123485;27;41027;-77
2024/03/30 07:57:10;;;;;;;4.97;3.37;;;;;;;19.07;69.40;97195.81;5110298;27;41190;-78
2024/03/30 07:59:37;;;;;;;6.03;3.50;;;;;;;19.29;68.83;97186.75;5075886;28;40792;-78
2024/03/30 08:02:04;;;;;;;5.30;3.23;;;;;;;19.64;67.82;97174.34;5076255;28;41633;-78
2024/03/30 08:04:31;;;;;;;4.83;3.30;;;;;;;20.11;66.45;97178.19;5075892;28;41323;-77
2024/03/30 08:06:58;;;;;;;6.13;3.60;;;;;;;20.55;64.68;97193.97;5094131;28;40999;-77
2024/03/30 08:09:25;;;;;;;7.13;3.67;;;;;;;21.12;62.80;97197.13;5092551;28;40659;-78
2024/03/30 08:11:54;;;;;;;4.97;2.97;;;;;;;21.65;61.47;97189.16;5092697;28;42996;-79
2024/03/30 08:14:21;;;;;;;5.73;3.57;;;;;;;21.69;60.80;97174.25;5109459;28;41368;-78
2024/03/30 08:16:48;;;;;;;7.83;3.80;;;;;;;21.91;59.69;97187.50;5094110;28;40177;-78
2024/03/30 08:19:16;;;;;;;11.70;4.10;;;;;;;21.96;59.28;97185.03;5127035;27;42696;-78
2024/03/30 08:21:44;;;;;;;15.90;4.60;;;;;;;21.82;54.64;97201.22;5092266;28;41804;-78
2024/03/30 08:24:11;;;;;;;16.07;3.73;;;;;;;21.90;55.83;97207.41;5075467;28;41461;-78
2024/03/30 08:26:38;;;;;;;14.03;4.00;;;;;;;21.85;55.63;97190.03;5075675;28;40227;-78
2024/03/30 08:29:07;;;;;;;12.87;3.70;;;;;;;21.95;56.11;97203.06;5075578;28;40715;-78
2024/03/30 08:31:34;;;;;;;12.63;3.97;;;;;;;21.79;55.34;97190.84;5126423;27;42624;-78
2024/03/30 08:34:00;;;;;;;16.50;4.37;;;;;;;21.74;56.54;97177.16;5092498;28;42109;-78
2024/03/30 08:36:28;;;;;;;14.83;4.40;;;;;;;21.73;55.78;97180.91;5109315;28;39066;-79
2024/03/30 08:38:54;;;;;;;14.20;4.90;;;;;;;21.69;53.23;97190.41;5108996;28;41082;-78
2024/03/30 08:41:22;;;;;;;22.03;5.47;;;;;;;21.75;52.51;97203.09;5092537;28;42716;-79
2024/03/30 08:43:48;;;;;;;20.57;5.20;;;;;;;21.90;54.64;97193.94;5091586;28;40829;-78
2024/03/30 08:46:17;;;;;;;15.73;4.33;;;;;;;21.96;54.58;97175.09;5126350;27;40527;-78
2024/03/30 08:48:44;;;;;;;20.80;5.07;;;;;;;22.18;52.27;97210.75;5092089;28;42124;-78
2024/03/30 08:51:11;;;;;;;17.20;5.13;;;;;;;22.21;51.81;97194.16;5092391;28;42713;-78
2024/03/30 08:53:37;;;;;;;19.70;4.97;;;;;;;22.33;52.64;97197.88;5091913;28;43771;-78
2024/03/30 08:56:06;;;;;;;16.60;4.80;;;;;;;22.70;53.09;97204.44;5109089;28;40201;-78
2024/03/30 08:58:32;;;;;;;22.60;4.87;;;;;;;22.91;53.19;97203.34;5091940;28;41844;-78
2024/03/30 09:01:00;;;;;;;16.83;5.13;;;;;;;22.95;51.09;97215.38;5126203;27;43909;-79
2024/03/30 09:03:27;;;;;;;20.60;4.17;;;;;;;22.85;49.73;97221.22;5091905;28;41002;-78
2024/03/30 09:05:55;;;;;;;20.80;4.67;;;;;;;22.78;51.52;97212.31;5092115;28;40182;-79
2024/03/30 09:08:21;;;;;;;18.80;5.13;;;;;;;22.72;51.59;97206.91;5107800;27;41960;-79
2024/03/30 09:10:49;;;;;;;20.77;4.57;;;;;;;22.65;49.70;97224.97;5074794;28;41808;-79
2024/03/30 09:13:16;;;;;;;25.73;5.03;;;;;;;22.81;51.15;97211.88;5093078;28;42573;-78
2024/03/30 09:15:43;;;;;;;22.27;5.50;;;;;;;23.29;50.18;97219.56;5108760;28;40121;-79
2024/03/30 09:18:10;;;;;;;20.10;5.23;;;;;;;23.75;48.97;97215.75;5091920;28;40848;-79
2024/03/30 09:20:39;;;;;;;15.47;4.70;;;;;;;23.82;49.32;97205.75;5125915;27;43918;-79
2024/03/30 09:23:05;;;;;;;18.07;4.50;;;;;;;23.82;48.71;97209.28;5091705;28;42239;-79
2024/03/30 09:25:33;;;;;;;25.63;5.47;;;;;;;23.63;46.85;97197.56;5091326;28;41578;-79
2024/03/30 09:27:59;;;;;;;30.23;5.47;;;;;;;23.68;48.42;97185.28;5093041;28;42862;-79
2024/03/30 09:30:27;;;;;;;19.00;4.73;;;;;;;23.76;48.50;97187.69;5108218;28;44790;-79
2024/03/30 09:32:53;;;;;;;24.87;5.60;;;;;;;23.92;47.65;97187.97;5091570;28;41221;-79
2024/03/30 09:35:21;;;;;;;22.10;5.80;;;;;;;24.28;46.93;97198.09;5108347;28;41532;-79
2024/03/30 09:37:49;;;;;;;18.40;5.23;;;;;;;24.32;48.06;97183.06;5091537;28;42073;-79
2024/03/30 09:40:16;;;;;;;18.53;5.60;;;;;;;24.30;47.32;97195.16;5091428;28;42633;-79
2024/03/30 09:42:45;;;;;;;25.90;6.13;;;;;;;24.22;46.37;97203.53;5092806;28;42656;-79
2024/03/30 09:45:13;;;;;;;21.57;5.70;;;;;;;24.16;46.33;97190.91;5091126;28;41054;-79
2024/03/30 09:47:41;;;;;;;23.63;5.13;;;;;;;24.12;46.73;97192.38;5125708;27;41599;-79
2024/03/30 09:50:10;;;;;;;19.77;5.47;;;;;;;24.16;47.00;97194.44;5092417;28;42593;-79
2024/03/30 09:52:39;;;;;;;21.90;5.80;;;;;;;24.17;47.11;97189.84;5125619;27;41906;-79
2024/03/30 09:55:14;;;;;;;22.13;5.60;;;;;;;24.09;47.04;97171.22;5091207;28;40650;-79
2024/03/30 09:57:43;;;;;;;23.83;5.27;;;;;;;24.21;47.00;97180.25;5089306;28;41728;-79
2024/03/30 10:00:13;;;;;;;19.47;5.53;;;;;;;24.27;46.03;97184.78;5090805;28;41602;-79
2024/03/30 10:02:41;;;;;;;23.43;6.10;;;;;;;24.41;47.28;97169.25;5091429;28;42273;-79
2024/03/30 10:05:09;;;;;;;19.60;5.00;;;;;;;24.60;47.53;97174.44;5092158;28;40186;-78
2024/03/30 10:07:37;;;;;;;21.00;5.43;;;;;;;24.64;46.72;97158.56;5091088;28;42554;-78
2024/03/30 10:10:21;;;;;;;17.57;4.90;;;;;;;24.72;46.72;97154.75;5073820;28;43710;-79
2024/03/30 10:12:53;;;;;;;22.23;4.87;;;;;;;24.80;45.29;97179.63;5074089;28;40753;-78
2024/03/30 10:15:28;;;;;;;20.00;4.80;;;;;;;24.70;45.67;97165.78;5124104;27;39998;-78
2024/03/30 10:17:54;;;;;;;21.53;5.80;;;;;;;24.75;45.05;97189.47;5073879;28;41115;-77
2024/03/30 10:20:23;;;;;;;22.67;5.00;;;;;;;24.67;44.79;97191.44;5124556;27;42925;-78
2024/03/30 10:22:49;;;;;;;22.83;5.10;;;;;;;24.64;44.49;97186.47;5091509;28;42524;-79
2024/03/30 10:25:18;;;;;;;24.23;4.93;;;;;;;24.50;42.40;97194.94;5107719;28;39046;-78
2024/03/30 10:27:46;;;;;;;24.70;5.97;;;;;;;24.39;43.17;97174.88;5090624;28;42012;-78
2024/03/30 10:30:14;;;;;;;24.13;5.47;;;;;;;24.39;43.03;97184.88;5073748;28;44028;-78
2024/03/30 10:32:41;;;;;;;27.97;6.90;;;;;;;24.32;42.03;97193.06;5090669;28;41037;-78
2024/03/30 10:35:09;;;;;;;21.43;5.77;;;;;;;24.23;42.45;97194.41;5090517;28;42193;-77
2024/03/30 10:37:35;;;;;;;23.37;6.20;;;;;;;24.12;43.88;97173.44;5124771;27;43026;-77
2024/03/30 10:40:06;;;;;;;24.13;5.77;;;;;;;24.09;44.85;97155.81;5092044;28;43147;-78
2024/03/30 10:42:32;;;;;;;21.57;6.33;;;;;;;24.02;44.97;97148.78;5073599;28;41416;-78
2024/03/30 10:45:02;;;;;;;27.43;6.27;;;;;;;24.00;44.73;97163.34;5089273;28;41327;-79
2024/03/30 10:47:30;;;;;;;26.70;6.80;;;;;;;23.90;44.04;97163.03;5090281;28;42297;-78
2024/03/30 10:49:58;;;;;;;30.07;6.33;;;;;;;23.86;44.68;97155.59;5124423;27;43940;-78
2024/03/30 10:52:25;;;;;;;27.83;5.90;;;;;;;23.77;45.35;97130.72;5090294;28;43330;-78
2024/03/30 10:54:53;;;;;;;27.57;5.93;;;;;;;23.89;45.32;97142.44;5091632;28;40302;-79
2024/03/30 10:57:20;;;;;;;29.90;6.63;;;;;;;23.85;44.00;97152.06;5073320;28;43989;-78
2024/03/30 10:59:49;;;;;;;26.17;6.53;;;;;;;23.82;44.04;97149.81;5072892;28;44515;-78
2024/03/30 11:02:18;;;;;;;20.33;5.37;;;;;;;23.87;44.77;97143.72;5073275;28;43654;-78
2024/03/30 11:04:46;;;;;;;27.50;6.50;;;;;;;23.77;45.51;97109.09;5089824;28;42305;-78
2024/03/30 11:07:13;;;;;;;25.57;5.23;;;;;;;24.05;44.93;97124.84;5090028;28;43114;-78
2024/03/30 11:09:42;;;;;;;29.83;6.27;;;;;;;24.24;43.51;97152.75;5072827;28;43162;-78
2024/03/30 11:12:10;;;;;;;17.77;5.87;;;;;;;24.38;42.88;97148.88;5089602;28;41090;-78
2024/03/30 11:14:38;;;;;;;29.37;6.60;;;;;;;24.49;42.55;97156.22;5072855;28;39107;-78
2024/03/30 11:17:13;;;;;;;24.47;6.37;;;;;;;24.57;41.48;97166.78;5089927;28;40785;-79
2024/03/30 11:19:50;;;;;;;25.93;6.53;;;;;;;24.78;41.40;97165.47;5088568;28;43969;-79
2024/03/30 11:22:24;;;;;;;35.93;7.13;;;;;;;24.92;40.02;97185.09;5072900;28;43461;-78
2024/03/30 11:24:56;;;;;;;28.10;6.00;;;;;;;25.11;41.30;97159.66;5124015;27;41504;-78
2024/03/30 11:27:28;;;;;;;24.97;6.17;;;;;;;25.28;40.85;97176.94;5120746;27;41804;-78
2024/03/30 11:30:05;;;;;;;27.07;6.07;;;;;;;25.39;41.80;97157.19;5122779;27;43054;-79
2024/03/30 11:32:35;;;;;;;31.23;7.07;;;;;;;25.52;39.94;97171.59;5090003;28;43279;-79
2024/03/30 11:35:14;;;;;;;28.67;6.83;;;;;;;25.56;39.53;97165.50;5093675;28;40901;-78
2024/03/30 11:37:43;;;;;;;33.90;7.13;;;;;;;25.53;39.13;97162.41;5093477;28;40682;-78
2024/03/30 11:40:17;;;;;;;29.70;6.50;;;;;;;25.63;40.37;97152.69;5092937;28;42907;-79
2024/03/30 11:42:52;;;;;;;26.80;6.60;;;;;;;25.49;39.46;97150.38;5090145;28;42565;-78
2024/03/30 11:45:23;;;;;;;27.00;7.13;;;;;;;25.46;38.45;97167.94;5093267;28;41043;-78
2024/03/30 11:47:51;;;;;;;31.00;6.30;;;;;;;25.33;37.68;97168.13;5110381;28;40873;-79
2024/03/30 11:50:20;;;;;;;31.87;6.53;;;;;;;25.24;38.09;97164.91;5092984;28;43758;-80
2024/03/30 11:52:47;;;;;;;33.73;7.37;;;;;;;25.05;37.91;97141.63;5094265;28;42979;-79
2024/03/30 11:55:24;;;;;;;23.50;6.00;;;;;;;25.09;38.47;97150.97;5093022;28;39072;-79
2024/03/30 11:57:54;;;;;;;28.40;7.17;;;;;;;25.04;38.65;97153.53;5089958;28;42699;-78
2024/03/30 12:00:25;;;;;;;28.17;6.13;;;;;;;25.07;39.88;97136.81;5109472;28;41802;-78
2024/03/30 12:02:57;;;;;;;25.20;5.90;;;;;;;25.04;39.68;97126.44;5109867;28;41255;-78
2024/03/30 12:05:29;;;;;;;22.67;7.00;;;;;;;25.22;41.03;97112.81;5092553;28;40279;-79
2024/03/30 12:07:56;;;;;;;33.10;6.97;;;;;;;25.23;39.26;97113.66;5089703;28;41912;-79
2024/03/30 12:10:24;;;;;;;27.47;6.70;;;;;;;25.41;39.72;97130.69;5076015;28;42963;-78
2024/03/30 12:12:57;;;;;;;31.67;5.67;;;;;;;25.48;40.14;97127.03;5092471;28;41482;-79
2024/03/30 12:15:27;;;;;;;26.30;6.23;;;;;;;25.51;41.43;97123.84;5092282;28;40116;-78
2024/03/30 12:17:53;;;;;;;30.17;6.93;;;;;;;25.40;38.38;97137.16;5075525;28;42619;-78
2024/03/30 12:20:21;;;;;;;36.30;8.03;;;;;;;25.16;37.21;97148.97;5092792;28;44025;-78
2024/03/30 12:22:50;;;;;;;35.47;7.00;;;;;;;25.12;37.82;97150.47;5075684;28;42033;-78
2024/03/30 12:25:20;;;;;;;30.60;6.83;;;;;;;24.88;37.20;97144.09;5092542;28;39178;-79
2024/03/30 12:27:46;;;;;;;37.37;7.63;;;;;;;24.91;37.69;97156.38;5092598;28;41778;-78
2024/03/30 12:30:14;;;;;;;28.60;5.97;;;;;;;24.85;38.37;97143.75;5126589;27;42863;-79
2024/03/30 12:32:40;;;;;;;26.30;6.40;;;;;;;24.82;38.38;97149.63;5109367;28;42298;-79
2024/03/30 12:35:08;;;;;;;32.33;7.57;;;;;;;24.78;38.68;97148.41;5126561;27;40350;-79
2024/03/30 12:37:35;;;;;;;35.77;7.53;;;;;;;24.60;39.03;97128.41;5093627;28;42027;-78
2024/03/30 12:40:05;;;;;;;35.73;8.33;;;;;;;24.61;39.03;97140.91;5109112;28;44189;-78
2024/03/30 12:42:31;;;;;;;28.57;7.20;;;;;;;24.56;39.44;97146.19;5093321;28;43363;-78
2024/03/30 12:44:59;;;;;;;30.03;7.30;;;;;;;24.54;39.82;97132.03;5091326;28;40130;-78
2024/03/30 12:47:26;;;;;;;29.60;6.47;;;;;;;24.55;40.49;97122.88;5093466;28;42794;-78
2024/03/30 12:49:53;;;;;;;39.03;8.73;;;;;;;24.52;41.10;97108.94;5075448;28;44400;-79
2024/03/30 12:52:20;;;;;;;35.00;8.20;;;;;;;24.76;41.00;97112.59;5075504;28;41007;-79
2024/03/30 12:54:47;;;;;;;31.47;7.17;;;;;;;24.79;39.40;97106.75;5109138;28;38896;-78
2024/03/30 12:57:15;;;;;;;27.53;7.13;;;;;;;24.95;40.69;97108.84;5092189;28;42076;-79
2024/03/30 12:59:43;;;;;;;30.77;7.53;;;;;;;25.02;40.74;97106.88;5074715;28;44767;-79
2024/03/30 13:02:10;;;;;;;30.40;7.23;;;;;;;25.03;40.23;97105.81;5108884;28;41167;-79
2024/03/30 13:04:38;;;;;;;26.97;7.33;;;;;;;24.94;40.58;97096.38;5091663;28;39068;-79
2024/03/30 13:07:06;;;;;;;27.50;6.43;;;;;;;24.84;40.21;97107.72;5093058;28;42725;-79
2024/03/30 13:09:33;;;;;;;24.23;7.37;;;;;;;24.64;41.31;97085.47;5091670;28;42804;-79
2024/03/30 13:12:01;;;;;;;32.37;7.87;;;;;;;24.44;40.51;97065.97;5074765;28;42656;-79
2024/03/30 13:14:30;;;;;;;31.10;7.27;;;;;;;24.57;40.20;97104.53;5091683;28;40327;-78
2024/03/30 13:17:03;;;;;;;33.60;8.43;;;;;;;24.51;41.37;97100.00;5092771;28;41810;-79
2024/03/30 13:19:32;;;;;;;32.57;7.10;;;;;;;24.47;41.15;97090.72;5091604;28;42596;-79
2024/03/30 13:21:59;;;;;;;24.80;7.40;;;;;;;24.40;41.95;97081.81;5074450;28;42288;-79
2024/03/30 13:24:26;;;;;;;32.80;7.30;;;;;;;24.37;40.90;97092.25;5074393;28;41615;-79
2024/03/30 13:26:54;;;;;;;35.33;8.67;;;;;;;24.28;41.54;97083.63;5091467;28;41953;-79
2024/03/30 13:29:21;;;;;;;27.23;7.13;;;;;;;24.20;41.88;97076.63;5125248;27;42744;-78
2024/03/30 13:31:49;;;;;;;26.10;6.33;;;;;;;24.13;42.08;97070.44;5091465;28;42589;-79
2024/03/30 13:34:17;;;;;;;26.27;7.93;;;;;;;24.02;42.46;97071.19;5125738;27;40066;-78
2024/03/30 13:36:43;;;;;;;27.87;7.40;;;;;;;23.90;42.31;97068.41;5108431;28;40515;-79
2024/03/30 13:39:12;;;;;;;29.53;7.17;;;;;;;23.58;43.10;97029.03;5090882;28;43627;-79
2024/03/30 13:41:39;;;;;;;30.10;7.33;;;;;;;23.69;42.26;97074.25;5092268;28;42418;-79
2024/03/30 13:44:06;;;;;;;30.70;7.13;;;;;;;23.53;42.87;97058.56;5091824;28;40142;-78
2024/03/30 13:46:32;;;;;;;32.37;7.57;;;;;;;23.32;42.12;97056.25;5074018;28;40904;-78
2024/03/30 13:49:03;;;;;;;33.43;7.77;;;;;;;23.31;42.63;97065.38;5090802;28;43869;-79
2024/03/30 13:51:30;;;;;;;26.93;7.77;;;;;;;23.21;41.37;97077.53;5108324;28;42221;-79
2024/03/30 13:53:57;;;;;;;25.40;7.37;;;;;;;23.15;42.45;97067.56;5091788;28;40929;-78
2024/03/30 13:56:24;;;;;;;30.00;6.70;;;;;;;23.09;42.27;97076.56;5092369;28;42114;-78
2024/03/30 13:58:51;;;;;;;25.43;6.40;;;;;;;23.07;42.89;97065.16;5073897;28;42233;-79
2024/03/30 14:01:19;;;;;;;21.10;6.47;;;;;;;23.05;43.49;97061.84;5090700;28;42320;-78
2024/03/30 14:03:47;;;;;;;25.40;7.07;;;;;;;23.05;44.25;97052.91;5091074;28;40207;-78
2024/03/30 14:06:15;;;;;;;21.17;5.73;;;;;;;23.04;44.27;97049.38;5074140;28;40802;-78
2024/03/30 14:08:42;;;;;;;24.93;7.13;;;;;;;22.91;44.67;97031.41;5107636;28;44111;-78
2024/03/30 14:11:09;;;;;;;30.50;6.27;;;;;;;23.04;45.16;97043.16;5090731;28;42634;-78
2024/03/30 14:13:37;;;;;;;38.67;7.37;;;;;;;23.03;45.08;97046.91;5073552;28;40042;-78
2024/03/30 14:16:03;;;;;;;28.93;7.07;;;;;;;22.99;45.25;97040.28;5073693;28;43415;-79
2024/03/30 14:18:31;;;;;;;24.57;6.47;;;;;;;22.94;45.05;97040.94;5090295;28;42052;-79
2024/03/30 14:20:57;;;;;;;23.60;6.27;;;;;;;22.89;45.02;97029.97;5091027;28;42604;-78
2024/03/30 14:23:26;;;;;;;26.43;7.27;;;;;;;22.84;45.38;97032.50;5107240;28;38937;-78
2024/03/30 14:25:53;;;;;;;27.13;6.77;;;;;;;22.74;45.44;97037.53;5074000;28;42512;-78
2024/03/30 14:28:20;;;;;;;26.60;6.10;;;;;;;22.74;46.36;97038.34;5073876;28;43044;-78
2024/03/30 14:30:47;;;;;;;28.93;6.43;;;;;;;22.68;46.51;97032.97;5107220;28;42632;-79
2024/03/30 14:33:14;;;;;;;20.80;5.63;;;;;;;22.61;46.34;97032.19;5073852;28;40057;-79
2024/03/30 14:35:41;;;;;;;30.20;7.27;;;;;;;22.54;46.78;97033.03;5107120;28;42055;-78
2024/03/30 14:38:08;;;;;;;25.77;7.00;;;;;;;22.20;47.01;97003.75;5090447;28;42805;-78
2024/03/30 14:40:36;;;;;;;24.17;5.80;;;;;;;22.36;47.89;97041.03;5090054;28;43225;-80
2024/03/30 14:43:04;;;;;;;22.43;6.00;;;;;;;22.28;47.85;97043.97;5090400;28;41023;-78
2024/03/30 14:45:31;;;;;;;24.07;6.43;;;;;;;22.16;47.92;97043.78;5091122;28;41972;-78
2024/03/30 14:47:58;;;;;;;24.17;6.53;;;;;;;21.90;48.38;97030.38;5107200;28;44608;-78
2024/03/30 14:50:25;;;;;;;19.60;5.40;;;;;;;21.93;48.23;97051.50;5090058;28;42596;-78
2024/03/30 14:52:54;;;;;;;21.23;5.60;;;;;;;21.80;48.48;97057.75;5124517;27;40084;-78
2024/03/30 14:55:20;;;;;;;20.53;5.70;;;;;;;21.68;48.82;97054.06;5090129;28;41928;-79
2024/03/30 14:57:49;;;;;;;17.73;4.53;;;;;;;21.55;49.64;97051.38;5090218;28;41800;-78
2024/03/30 15:00:17;;;;;;;23.10;5.50;;;;;;;21.35;49.79;97050.56;5091302;28;42605;-78
2024/03/30 15:02:44;;;;;;;24.27;5.63;;;;;;;21.27;50.08;97061.53;5073105;28;39728;-78
2024/03/30 15:05:11;;;;;;;18.40;6.20;;;;;;;21.12;50.39;97067.94;5091361;28;41780;-78
2024/03/30 15:07:39;;;;;;;30.47;7.03;;;;;;;20.99;49.87;97065.22;5110178;28;43387;-78
2024/03/30 15:10:06;;;;;;;36.17;7.00;;;;;;;20.89;49.86;97075.56;5093918;28;41702;-78
2024/03/30 15:12:33;;;;;;;31.47;8.00;;;;;;;20.67;50.35;97049.81;5076831;28;39266;-79
2024/03/30 15:15:01;;;;;;;35.40;9.07;;;;;;;20.65;51.48;97063.47;5093767;28;41011;-80
2024/03/30 15:17:29;;;;;;;19.87;6.10;;;;;;;20.53;52.34;97065.09;5093409;28;42965;-79
2024/03/30 15:19:57;;;;;;;26.43;6.87;;;;;;;20.40;53.63;97049.75;5094041;28;41449;-79
2024/03/30 15:22:24;;;;;;;25.47;6.93;;;;;;;20.28;54.70;97054.00;5094630;28;40343;-79
2024/03/30 15:24:51;;;;;;;26.07;7.00;;;;;;;20.19;55.82;97049.84;5095017;28;42593;-78
2024/03/30 15:27:18;;;;;;;29.13;6.43;;;;;;;20.08;56.83;97050.41;5094502;28;43762;-79
2024/03/30 15:32:09;;;;;;;27.87;7.90;;;;;;;19.96;57.98;97046.66;5127950;27;43462;-78
2024/03/30 15:32:38;;;;;;;30.40;7.37;;;;;;;19.75;59.38;97027.94;5076973;28;38946;-80
2024/03/30 15:35:05;;;;;;;24.50;6.07;;;;;;;19.74;58.67;97053.97;5093675;28;43699;-79
2024/03/30 15:37:33;;;;;;;23.50;6.20;;;;;;;19.53;59.04;97028.03;5093119;28;42817;-79
2024/03/30 15:40:00;;;;;;;17.50;4.77;;;;;;;19.59;59.19;97040.66;5076360;28;41028;-78
2024/03/30 15:42:30;;;;;;;26.37;6.77;;;;;;;19.40;59.84;97027.91;5110090;28;39536;-77
2024/03/30 15:44:59;;;;;;;22.70;6.30;;;;;;;19.42;60.15;97038.41;5092909;28;41756;-78
2024/03/30 15:47:26;;;;;;;23.03;6.00;;;;;;;19.33;60.46;97040.41;5075973;28;41984;-79
2024/03/30 15:49:56;;;;;;;23.57;6.00;;;;;;;19.27;61.28;97041.22;5093329;28;42420;-78
2024/03/30 15:52:23;;;;;;;32.77;6.67;;;;;;;19.19;60.52;97052.91;5092962;28;40288;-78
2024/03/30 15:54:51;;;;;;;25.80;6.00;;;;;;;19.13;60.51;97044.81;5110163;28;42244;-78
2024/03/30 15:57:17;;;;;;;27.90;6.20;;;;;;;18.96;60.62;97034.34;5092967;28;43771;-78
2024/03/30 15:59:51;;;;;;;32.23;6.53;;;;;;;18.99;60.80;97049.22;5076285;28;43425;-79
2024/03/30 16:02:18;;;;;;;26.87;5.77;;;;;;;18.81;60.68;97041.63;5126806;27;39841;-78
2024/03/30 16:04:48;;;;;;;29.27;7.03;;;;;;;18.86;60.42;97057.97;5076083;28;42475;-78
2024/03/30 16:07:17;;;;;;;23.83;6.00;;;;;;;18.80;60.35;97058.72;5092555;28;43001;-78
2024/03/30 16:09:44;;;;;;;26.07;5.77;;;;;;;18.76;59.88;97060.16;5092719;28;42186;-78
2024/03/30 16:12:11;;;;;;;21.90;6.60;;;;;;;18.69;61.03;97064.59;5092879;28;41357;-79
2024/03/30 16:14:38;;;;;;;24.17;6.00;;;;;;;18.52;60.83;97055.13;5127039;27;42765;-78
2024/03/30 16:17:06;;;;;;;30.10;6.57;;;;;;;18.51;60.63;97066.88;5093234;28;42936;-77
2024/03/30 16:19:33;;;;;;;24.17;5.93;;;;;;;18.42;60.47;97065.31;5075725;28;42232;-78
2024/03/30 16:22:01;;;;;;;27.50;6.20;;;;;;;18.21;60.76;97044.66;5075545;28;41014;-78
2024/03/30 16:24:29;;;;;;;22.93;5.23;;;;;;;18.20;60.60;97057.22;5094012;28;42577;-78
2024/03/30 16:26:57;;;;;;;22.57;5.07;;;;;;;18.14;60.24;97059.81;5075617;28;44114;-78
2024/03/30 16:29:23;;;;;;;17.40;5.20;;;;;;;18.06;60.56;97068.78;5126977;27;43351;-78
2024/03/30 16:31:51;;;;;;;23.37;5.40;;;;;;;17.97;60.21;97077.94;5092539;28;42222;-77
2024/03/30 16:34:17;;;;;;;26.40;6.23;;;;;;;17.79;59.47;97077.50;5092780;28;42116;-78
2024/03/30 16:36:44;;;;;;;25.23;5.27;;;;;;;17.77;59.61;97090.22;5092298;28;44866;-78
2024/03/30 16:39:11;;;;;;;25.43;5.43;;;;;;;17.71;59.43;97097.13;5075581;28;42420;-77
2024/03/30 16:41:40;;;;;;;21.20;5.03;;;;;;;17.65;59.19;97097.88;5075779;28;39031;-78
2024/03/30 16:44:06;;;;;;;18.53;5.50;;;;;;;17.56;58.65;97105.09;5126526;27;42578;-77
2024/03/30 16:46:33;;;;;;;19.60;4.23;;;;;;;17.47;57.66;97106.22;5093642;28;43833;-78
2024/03/30 16:49:00;;;;;;;25.83;4.83;;;;;;;17.33;57.36;97103.50;5126536;27;43488;-77
2024/03/30 16:51:27;;;;;;;22.53;4.03;;;;;;;17.25;57.49;97117.78;5092256;28;39656;-78
2024/03/30 16:53:55;;;;;;;18.43;5.00;;;;;;;17.16;56.98;97129.56;5075490;28;41135;-77
2024/03/30 16:56:21;;;;;;;16.30;4.67;;;;;;;17.08;55.98;97137.63;5109012;28;43566;-77
2024/03/30 16:58:51;;;;;;;20.37;4.77;;;;;;;16.88;55.62;97132.78;5092510;28;43286;-77
2024/03/30 17:01:18;;;;;;;25.20;5.00;;;;;;;16.96;55.76;97155.09;5093056;28;42796;-78
2024/03/30 17:03:45;;;;;;;22.13;4.13;;;;;;;16.88;55.41;97159.50;5092250;28;43004;-79
2024/03/30 17:06:12;;;;;;;21.73;4.43;;;;;;;16.84;55.57;97168.88;5075066;28;43101;-78
2024/03/30 17:08:39;;;;;;;18.70;3.90;;;;;;;16.76;55.69;97160.91;5109076;28;40880;-77
2024/03/30 17:11:09;;;;;;;14.57;3.57;;;;;;;16.69;55.43;97159.94;5093382;28;41113;-78
2024/03/30 17:13:37;;;;;;;9.80;3.50;;;;;;;16.65;55.60;97157.81;5075204;28;42416;-78
2024/03/30 17:16:05;;;;;;;13.70;3.27;;;;;;;16.61;55.83;97156.44;5092890;28;42863;-77
2024/03/30 17:18:32;;;;;;;12.40;3.07;;;;;;;16.38;55.64;97129.69;5108985;28;43266;-78
2024/03/30 17:21:00;;;;;;;15.93;3.33;;;;;;;16.47;55.69;97168.72;5091497;28;39108;-78
2024/03/30 17:23:28;;;;;;;14.07;4.13;;;;;;;16.40;55.66;97165.06;5091754;28;42005;-77
2024/03/30 17:25:55;;;;;;;18.47;3.57;;;;;;;16.31;55.70;97168.78;5074359;28;42326;-79
2024/03/30 17:28:24;;;;;;;14.40;3.20;;;;;;;16.14;55.40;97155.50;5107626;28;42323;-79
2024/03/30 17:30:54;;;;;;;10.33;2.63;;;;;;;16.17;55.32;97179.19;5091455;28;40608;-77
2024/03/30 17:33:25;;;;;;;18.60;3.67;;;;;;;16.08;55.27;97180.19;5074661;28;42125;-78
2024/03/30 17:36:02;;;;;;;12.97;2.60;;;;;;;16.04;55.38;97183.41;5108585;28;42814;-79
2024/03/30 17:38:30;;;;;;;15.47;3.20;;;;;;;15.96;55.11;97189.56;5074896;28;43569;-78
2024/03/30 17:40:59;;;;;;;13.63;2.87;;;;;;;15.89;54.99;97177.09;5092952;28;41274;-79
2024/03/30 17:43:31;;;;;;;16.37;3.63;;;;;;;15.81;55.61;97177.94;5074350;28;43684;-78
2024/03/30 17:46:00;;;;;;;17.20;3.33;;;;;;;15.66;55.48;97166.28;5074458;28;42814;-78
2024/03/30 17:48:30;;;;;;;16.57;3.13;;;;;;;15.64;55.71;97181.63;5091211;28;43070;-78
2024/03/30 17:51:03;;;;;;;12.60;3.20;;;;;;;15.56;55.56;97184.31;5092373;28;41737;-78
2024/03/30 17:53:33;;;;;;;7.03;1.87;;;;;;;15.50;55.50;97184.94;5088788;28;41608;-78
2024/03/30 17:56:00;;;;;;;11.83;2.70;;;;;;;15.36;55.74;97176.59;5074480;28;43379;-78
2024/03/30 17:58:28;;;;;;;15.30;2.53;;;;;;;15.41;55.70;97194.78;5091618;28;41132;-78
2024/03/30 18:01:06;;;;;;;12.00;3.27;;;;;;;15.29;56.24;97186.28;5108293;28;39196;-78
2024/03/30 18:03:35;;;;;;;20.07;3.13;;;;;;;15.21;56.40;97188.06;5091613;28;41137;-78
2024/03/30 18:06:01;;;;;;;10.90;3.10;;;;;;;15.15;56.51;97189.59;5108230;28;43228;-79
2024/03/30 18:08:30;;;;;;;11.17;3.13;;;;;;;14.85;56.46;97167.03;5092591;28;43359;-77
2024/03/30 18:10:57;;;;;;;12.73;2.80;;;;;;;15.05;56.52;97196.91;5092586;28;39989;-77
2024/03/30 18:13:25;;;;;;;12.87;2.57;;;;;;;14.97;56.82;97202.22;5092776;28;42802;-79
2024/03/30 18:15:52;;;;;;;12.83;2.73;;;;;;;14.84;56.78;97193.84;5091157;28;42640;-78